Terminal Aerodrome Forecast
Issued by NWS

Home | Current Version | Previous Version | Text Only | Print | Product List | Glossary On
Versions: 1 2 3 4 5 6 7 8 9 10 11 12 13 14 15 16 17 18 19 20 21 22 23 24 25 26 27 28
000
FTUS41 KPHI 022300 RRA
TAFPNE
TAF
KPNE 022349Z 0300/0324 22011KT P6SM SCT090 SCT150
     FM030030 VRB15G25KT 3SM -TSRA BKN060CB OVC150
     FM030130 25005KT P6SM FEW050 SCT250
     FM030700 28006KT P6SM SCT150
     FM031300 33009KT P6SM FEW200
     FM031900 29007KT P6SM SKC=

USA.gov is the U.S. government's official web portal to all federal, state and local government web resources and services.